Time;durP1;ratioP1;P1;durP2;ratioP2;P2;SDS_P1;SDS_P2;PMS_P1;PMS_P2;Temp;Humidity;BMP_temperature;BMP_pressure;BME280_temperature;BME280_humidity;BME280_pressure;Samples;Min_cycle;Max_cycle;Signal;HPM_P1;HPM_P2
2022/09/03 00:01:00;;;;;;;5.32;4.10;;;20.90;68.60;;;;;;2098248;28;20341;-86
2022/09/03 00:02:08;;;;;;;9.68;4.82;;;20.90;68.60;;;;;;2091676;28;20130;-86
2022/09/03 00:03:32;;;;;;;6.95;4.35;;;20.90;68.50;;;;;;2098718;28;20347;-86
2022/09/03 00:04:56;;;;;;;6.43;4.53;;;20.90;68.40;;;;;;2086509;28;20265;-87
2022/09/03 00:06:11;;;;;;;6.78;4.53;;;20.90;68.60;;;;;;2092473;28;20252;-88
2022/09/03 00:07:20;;;;;;;7.43;4.57;;;20.90;68.50;;;;;;2101878;28;20269;-85
2022/09/03 00:08:32;;;;;;;8.65;4.70;;;20.80;68.50;;;;;;2100231;28;20257;-87
2022/09/03 00:09:45;;;;;;;5.25;4.03;;;20.90;68.60;;;;;;2095435;28;20261;-87
2022/09/03 00:10:51;;;;;;;8.65;4.43;;;20.90;68.50;;;;;;2093940;28;20117;-88
2022/09/03 00:11:54;;;;;;;7.82;4.00;;;20.90;68.60;;;;;;2100521;28;20624;-86
2022/09/03 00:13:02;;;;;;;6.18;4.35;;;20.80;68.60;;;;;;2091998;28;20334;-87
2022/09/03 00:14:10;;;;;;;6.63;4.30;;;20.80;68.70;;;;;;2077125;28;20310;-86
2022/09/03 00:15:16;;;;;;;8.93;4.45;;;20.80;68.80;;;;;;2084459;28;20279;-87
2022/09/03 00:16:21;;;;;;;5.57;3.97;;;20.80;69.00;;;;;;2087842;28;20246;-86
2022/09/03 00:17:28;;;;;;;9.10;4.63;;;20.80;69.10;;;;;;2092218;28;20258;-85
2022/09/03 00:18:33;;;;;;;7.85;5.03;;;20.80;69.20;;;;;;2092282;28;20353;-87
2022/09/03 00:19:43;;;;;;;7.20;4.60;;;20.70;69.20;;;;;;2081538;28;20271;-85
2022/09/03 00:20:50;;;;;;;6.93;4.43;;;20.70;69.20;;;;;;2085856;28;20259;-85
2022/09/03 00:21:59;;;;;;;6.85;4.90;;;20.70;69.20;;;;;;2099709;28;20340;-87
2022/09/03 00:25:01;;;;;;;6.03;4.22;;;20.70;69.30;;;;;;2106125;28;20272;-87
2022/09/03 00:26:16;;;;;;;5.75;4.30;;;20.80;69.30;;;;;;2099979;28;20273;-92
2022/09/03 00:27:24;;;;;;;7.25;4.78;;;20.70;69.10;;;;;;2091258;28;20280;-88
2022/09/03 00:28:37;;;;;;;6.97;4.63;;;20.70;69.10;;;;;;2092648;28;20269;-86
2022/09/03 00:29:45;;;;;;;5.75;4.40;;;20.70;69.10;;;;;;2090837;28;20262;-88
2022/09/03 00:30:52;;;;;;;9.57;4.55;;;20.70;69.00;;;;;;2081474;28;20263;-89
2022/09/03 00:32:00;;;;;;;11.75;4.65;;;20.70;69.10;;;;;;2084949;28;20266;-86
2022/09/03 00:33:11;;;;;;;7.45;4.55;;;20.70;69.20;;;;;;2085233;28;20282;-90
2022/09/03 00:34:25;;;;;;;9.07;4.55;;;20.60;69.30;;;;;;2088000;28;20292;-87
2022/09/03 00:35:31;;;;;;;7.28;4.93;;;20.60;69.40;;;;;;2084607;28;20348;-90
2022/09/03 00:36:41;;;;;;;6.45;4.72;;;20.60;69.30;;;;;;2078395;28;20338;-87
2022/09/03 00:37:43;;;;;;;8.38;4.75;;;20.70;69.30;;;;;;2080829;28;20336;-90
2022/09/03 00:38:44;;;;;;;7.97;4.90;;;20.70;69.30;;;;;;2083060;28;20728;-87
2022/09/03 00:39:45;;;;;;;9.00;5.13;;;20.70;69.20;;;;;;2091501;28;20266;-89
2022/09/03 00:41:05;;;;;;;7.33;4.73;;;20.70;69.20;;;;;;2094222;28;20296;-85
2022/09/03 00:42:24;;;;;;;7.28;4.60;;;20.70;69.20;;;;;;2087241;28;20029;-88
2022/09/03 00:43:31;;;;;;;8.20;4.95;;;20.70;69.10;;;;;;2088015;28;20271;-88
2022/09/03 00:44:47;;;;;;;8.15;4.75;;;20.60;69.20;;;;;;2094527;28;20269;-87
2022/09/03 00:46:04;;;;;;;8.85;4.97;;;20.70;69.20;;;;;;2091134;28;20269;-87
2022/09/03 00:47:55;;;;;;;10.63;4.70;;;20.60;69.30;;;;;;2093695;28;20264;-88
2022/09/03 00:49:21;;;;;;;5.75;4.43;;;20.60;69.30;;;;;;2097280;28;20269;-86
2022/09/03 00:50:45;;;;;;;5.85;4.30;;;20.60;69.30;;;;;;2077976;28;20278;-88
2022/09/03 00:52:10;;;;;;;6.97;5.05;;;20.60;69.20;;;;;;2093574;28;20301;-88
2022/09/03 00:53:33;;;;;;;9.13;4.97;;;20.60;69.30;;;;;;2082816;28;20271;-87
2022/09/03 00:54:59;;;;;;;7.40;4.82;;;20.70;69.40;;;;;;2087197;28;20269;-87
2022/09/03 00:56:14;;;;;;;8.65;4.88;;;20.70;69.30;;;;;;2085407;28;20739;-87
2022/09/03 00:57:43;;;;;;;8.07;4.43;;;20.60;69.40;;;;;;2084885;28;20239;-88
2022/09/03 00:59:10;;;;;;;8.75;5.05;;;20.60;69.30;;;;;;2086110;28;20269;-86
2022/09/03 01:00:15;;;;;;;9.38;4.70;;;20.60;69.30;;;;;;2092714;28;20261;-88
2022/09/03 01:01:22;;;;;;;7.53;4.75;;;20.60;69.30;;;;;;2107799;28;20307;-89
2022/09/03 01:05:25;;;;;;;6.53;4.68;;;20.60;69.30;;;;;;2099986;28;20234;-87
2022/09/03 01:06:54;;;;;;;7.45;4.53;;;20.60;69.40;;;;;;2091128;28;20266;-87
2022/09/03 01:07:57;;;;;;;9.60;5.22;;;20.60;69.50;;;;;;2086667;28;20628;-88
2022/09/03 01:09:26;;;;;;;7.97;4.57;;;20.60;69.60;;;;;;2079375;28;20259;-86
2022/09/03 01:10:43;;;;;;;8.50;4.70;;;20.60;69.50;;;;;;2097322;28;20248;-86
2022/09/03 01:11:53;;;;;;;8.57;4.80;;;20.50;69.50;;;;;;2107638;28;20329;-86
2022/09/03 01:13:08;;;;;;;9.60;5.40;;;20.50;69.80;;;;;;2091243;28;20270;-86
2022/09/03 01:14:42;;;;;;;9.07;5.05;;;20.50;69.90;;;;;;2092423;28;20335;-86
2022/09/03 01:16:05;;;;;;;7.60;4.75;;;20.50;70.00;;;;;;2094700;28;20300;-88
2022/09/03 01:17:26;;;;;;;8.27;4.95;;;20.40;70.10;;;;;;2087057;28;20295;-88
2022/09/03 01:18:42;;;;;;;8.20;5.07;;;20.50;70.10;;;;;;2080142;28;20045;-86
2022/09/03 01:20:03;;;;;;;8.57;5.10;;;20.50;70.20;;;;;;2078711;28;20271;-87
2022/09/03 01:21:40;;;;;;;9.90;4.82;;;20.50;70.00;;;;;;2092044;28;20436;-89
2022/09/03 01:22:59;;;;;;;6.88;4.85;;;20.50;70.00;;;;;;2090362;28;20301;-85
2022/09/03 01:24:30;;;;;;;6.78;4.45;;;20.50;69.90;;;;;;2085226;28;20267;-88
2022/09/03 01:25:52;;;;;;;6.10;4.45;;;20.50;69.90;;;;;;2098361;28;20280;-89
2022/09/03 01:27:14;;;;;;;6.22;4.68;;;20.50;69.80;;;;;;2093695;28;20336;-86
2022/09/03 01:28:43;;;;;;;8.52;5.18;;;20.50;69.90;;;;;;2093933;28;20360;-87
2022/09/03 01:30:06;;;;;;;13.02;5.45;;;20.40;70.10;;;;;;2089473;28;20351;-86
2022/09/03 01:31:41;;;;;;;7.78;5.20;;;20.40;70.20;;;;;;2080550;28;20306;-88
2022/09/03 01:33:19;;;;;;;7.38;4.90;;;20.40;70.20;;;;;;2100311;28;20024;-86
2022/09/03 01:34:21;;;;;;;6.78;4.75;;;20.40;70.20;;;;;;2087813;28;20372;-88
2022/09/03 01:35:47;;;;;;;6.55;4.60;;;20.40;70.20;;;;;;2077755;28;20687;-88
2022/09/03 01:37:00;;;;;;;6.03;4.28;;;20.40;70.10;;;;;;2086323;28;20419;-88
2022/09/03 01:38:08;;;;;;;6.88;4.78;;;20.40;70.10;;;;;;2086030;28;20589;-86
2022/09/03 01:39:19;;;;;;;10.85;5.10;;;20.40;70.10;;;;;;2083738;28;20680;-87
2022/09/03 01:40:47;;;;;;;6.32;4.68;;;20.40;70.00;;;;;;2090735;28;20353;-88
2022/09/03 01:45:34;;;;;;;7.22;4.93;;;20.40;70.60;;;;;;2099620;28;20268;-87
2022/09/03 01:46:45;;;;;;;8.82;4.85;;;20.40;70.50;;;;;;2106433;28;20308;-86
2022/09/03 01:48:20;;;;;;;7.95;5.22;;;20.40;70.50;;;;;;2092969;28;20348;-88
2022/09/03 01:49:36;;;;;;;9.32;5.22;;;20.40;70.50;;;;;;2092803;28;20269;-87
2022/09/03 01:50:58;;;;;;;6.50;4.43;;;20.40;70.40;;;;;;2090047;28;20803;-88
2022/09/03 01:52:11;;;;;;;8.73;5.38;;;20.40;70.50;;;;;;2088435;28;20281;-88
2022/09/03 01:53:18;;;;;;;8.18;5.10;;;20.30;70.70;;;;;;2084306;28;20040;-86
2022/09/03 01:54:36;;;;;;;13.60;5.72;;;20.30;70.80;;;;;;2088721;28;20280;-89
2022/09/03 01:55:40;;;;;;;8.57;4.80;;;20.30;70.70;;;;;;2094428;28;20278;-88
2022/09/03 01:57:08;;;;;;;8.85;5.32;;;20.30;70.60;;;;;;2099162;28;20368;-87
2022/09/03 01:58:12;;;;;;;7.72;5.55;;;20.30;70.70;;;;;;2090083;28;20300;-87
2022/09/03 01:59:40;;;;;;;8.45;5.20;;;20.30;70.60;;;;;;2086007;28;20258;-88
2022/09/03 02:00:43;;;;;;;9.60;5.55;;;20.30;70.50;;;;;;2083738;28;20269;-86
2022/09/03 02:02:06;;;;;;;9.27;5.70;;;20.30;70.40;;;;;;2091524;28;20261;-88
2022/09/03 02:03:09;;;;;;;7.82;4.43;;;20.30;70.40;;;;;;2101210;28;20261;-86
2022/09/03 02:04:22;;;;;;;9.85;5.05;;;20.30;70.50;;;;;;2088647;28;20349;-85
2022/09/03 02:05:28;;;;;;;8.55;5.00;;;20.20;70.70;;;;;;2092476;28;20274;-89
2022/09/03 02:06:30;;;;;;;6.65;4.60;;;20.20;70.80;;;;;;2098235;28;20574;-89
2022/09/03 02:07:38;;;;;;;7.78;5.35;;;20.20;70.80;;;;;;2082869;28;20279;-88
2022/09/03 02:08:40;;;;;;;7.75;5.50;;;20.20;70.80;;;;;;2083458;28;20267;-86
2022/09/03 02:09:41;;;;;;;6.95;4.65;;;20.20;70.80;;;;;;2087581;28;20798;-87
2022/09/03 02:10:52;;;;;;;7.30;5.27;;;20.20;70.80;;;;;;2074453;28;20329;-86
2022/09/03 02:11:59;;;;;;;9.63;4.85;;;20.20;70.90;;;;;;2092043;28;20051;-87
2022/09/03 02:17:20;;;;;;;7.10;4.57;;;20.20;70.90;;;;;;2107538;28;20667;-87
2022/09/03 02:18:36;;;;;;;8.07;5.20;;;20.20;71.00;;;;;;2090626;28;20257;-87
2022/09/03 02:19:38;;;;;;;7.45;5.40;;;20.10;71.00;;;;;;2092642;28;20025;-87
2022/09/03 02:20:39;;;;;;;8.50;5.35;;;20.10;71.20;;;;;;2091113;28;20268;-87
2022/09/03 02:21:48;;;;;;;7.50;5.47;;;20.10;71.10;;;;;;2107258;28;20265;-88
2022/09/03 02:22:53;;;;;;;8.93;5.95;;;20.10;71.00;;;;;;2092398;28;20735;-89
2022/09/03 02:23:53;;;;;;;7.88;5.10;;;20.20;71.00;;;;;;2093452;28;20653;-88
2022/09/03 02:24:54;;;;;;;7.93;5.30;;;20.10;71.00;;;;;;2092324;28;20316;-85
2022/09/03 02:25:58;;;;;;;7.90;5.53;;;20.20;71.20;;;;;;2092494;28;20021;-88
2022/09/03 02:26:59;;;;;;;8.00;5.57;;;20.10;71.10;;;;;;2092712;28;20029;-89
2022/09/03 02:28:02;;;;;;;7.55;5.47;;;20.20;71.00;;;;;;2092359;28;20258;-87
2022/09/03 02:29:04;;;;;;;7.05;5.45;;;20.20;71.00;;;;;;2088465;28;20049;-88
2022/09/03 02:30:05;;;;;;;;;;;20.20;70.90;;;;;;2092832;28;20269;-86
2022/09/03 02:31:06;;;;;;;9.02;5.32;;;20.10;70.80;;;;;;2084333;28;19940;-88
2022/09/03 02:32:07;;;;;;;8.35;5.07;;;20.10;70.90;;;;;;2088820;28;20739;-86
2022/09/03 02:33:08;;;;;;;9.60;5.70;;;20.20;71.00;;;;;;2092547;28;20029;-87
2022/09/03 02:34:09;;;;;;;9.15;5.78;;;20.10;70.90;;;;;;2092521;28;20017;-88
2022/09/03 02:35:11;;;;;;;8.32;5.63;;;20.10;71.20;;;;;;2090543;28;20029;-89
2022/09/03 02:36:16;;;;;;;7.28;5.53;;;20.00;71.40;;;;;;2083606;28;20483;-87
2022/09/03 02:37:18;;;;;;;9.23;5.30;;;20.00;71.50;;;;;;2087991;28;20029;-88
2022/09/03 02:38:27;;;;;;;9.90;5.30;;;20.00;71.60;;;;;;2092497;28;20720;-86
2022/09/03 02:39:28;;;;;;;9.73;5.03;;;19.90;71.70;;;;;;2085275;28;20025;-88
2022/09/03 02:40:28;;;;;;;9.27;4.97;;;20.00;71.60;;;;;;2087344;28;20262;-88
2022/09/03 02:41:30;;;;;;;8.27;5.70;;;20.00;71.50;;;;;;2100600;28;20453;-86
2022/09/03 02:42:31;;;;;;;8.52;5.50;;;20.00;71.70;;;;;;2083217;28;20530;-86
2022/09/03 02:43:48;;;;;;;8.77;5.77;;;19.90;71.70;;;;;;2084545;28;20112;-87
2022/09/03 02:44:57;;;;;;;8.90;5.57;;;19.90;71.70;;;;;;2086323;28;20258;-86
2022/09/03 02:46:03;;;;;;;12.75;5.85;;;20.00;71.80;;;;;;2098327;28;20257;-86
2022/09/03 02:47:08;;;;;;;7.65;5.40;;;20.00;71.80;;;;;;2092281;28;20262;-87
2022/09/03 02:48:10;;;;;;;7.93;5.90;;;19.90;71.80;;;;;;2084521;28;20318;-86
2022/09/03 02:49:11;;;;;;;7.97;5.75;;;19.90;72.00;;;;;;2088672;28;20798;-85
2022/09/03 02:50:11;;;;;;;9.20;5.80;;;19.90;72.10;;;;;;2100584;28;20308;-86
2022/09/03 02:51:12;;;;;;;7.87;5.67;;;19.90;72.20;;;;;;2084564;28;20266;-88
2022/09/03 02:52:14;;;;;;;8.83;5.80;;;19.90;71.80;;;;;;2075862;28;20061;-88
2022/09/03 02:53:14;;;;;;;10.05;6.18;;;19.90;71.90;;;;;;2084018;28;20192;-89
2022/09/03 02:54:15;;;;;;;9.70;5.60;;;19.90;71.90;;;;;;2097048;28;20025;-85
2022/09/03 02:55:18;;;;;;;10.05;6.35;;;19.90;71.80;;;;;;2100469;28;20033;-88
2022/09/03 02:56:19;;;;;;;7.32;5.65;;;19.90;71.80;;;;;;2100035;28;20099;-87
2022/09/03 02:57:19;;;;;;;8.60;6.33;;;19.90;71.70;;;;;;2094269;28;20258;-86
2022/09/03 02:58:20;;;;;;;11.37;5.90;;;19.90;71.90;;;;;;2092231;28;20037;-87
2022/09/03 02:59:21;;;;;;;9.97;5.57;;;19.90;72.20;;;;;;2083855;28;20088;-88
2022/09/03 03:00:22;;;;;;;12.35;6.05;;;19.80;72.30;;;;;;2083829;28;20041;-88
2022/09/03 03:01:23;;;;;;;11.87;6.90;;;19.80;72.40;;;;;;2091320;28;20032;-87
2022/09/03 03:02:24;;;;;;;12.25;6.55;;;19.90;72.20;;;;;;2084981;28;20025;-87
2022/09/03 03:03:25;;;;;;;14.50;6.73;;;19.80;72.10;;;;;;2083838;28;20464;-88
2022/09/03 03:04:26;;;;;;;10.15;6.88;;;19.90;72.10;;;;;;2088547;28;20347;-89
2022/09/03 03:05:42;;;;;;;12.38;6.65;;;19.90;72.10;;;;;;2083979;28;20041;-88
2022/09/03 03:06:43;;;;;;;9.52;6.13;;;19.90;72.00;;;;;;2087992;28;20111;-86
2022/09/03 03:07:44;;;;;;;9.57;6.53;;;19.80;72.30;;;;;;2083786;28;20274;-88
2022/09/03 03:08:45;;;;;;;9.80;7.00;;;19.80;72.50;;;;;;2083884;28;20412;-86
2022/09/03 03:09:46;;;;;;;10.57;6.55;;;19.70;72.60;;;;;;2091344;28;20091;-86
2022/09/03 03:10:48;;;;;;;10.13;6.73;;;19.70;72.70;;;;;;2083797;28;20029;-88
2022/09/03 03:11:50;;;;;;;;;;;19.70;72.90;;;;;;2092318;28;20049;-87
2022/09/03 03:12:51;;;;;;;9.57;6.10;;;19.60;73.00;;;;;;2087978;28;19987;-87
2022/09/03 03:13:52;;;;;;;8.57;6.10;;;19.60;73.00;;;;;;2092072;28;20262;-86
2022/09/03 03:14:52;;;;;;;12.75;6.97;;;19.60;73.10;;;;;;2088595;28;20043;-88
2022/09/03 03:15:57;;;;;;;11.03;7.23;;;19.60;73.00;;;;;;2083080;28;20061;-86
2022/09/03 03:16:58;;;;;;;12.48;6.72;;;19.60;73.10;;;;;;2084260;28;20022;-86
2022/09/03 03:17:59;;;;;;;9.73;6.90;;;19.60;73.10;;;;;;2079775;28;20273;-89
2022/09/03 03:18:59;;;;;;;8.97;6.33;;;19.60;72.90;;;;;;2083860;28;20487;-88
2022/09/03 03:20:00;;;;;;;11.03;7.33;;;19.60;72.70;;;;;;2083835;28;20076;-86
2022/09/03 03:21:13;;;;;;;10.07;6.97;;;19.60;72.80;;;;;;2092001;28;20051;-86
2022/09/03 03:22:14;;;;;;;10.82;6.70;;;19.60;72.80;;;;;;2092889;28;20451;-87
2022/09/03 03:23:14;;;;;;;14.30;6.97;;;19.60;73.00;;;;;;2083766;28;20275;-86
2022/09/03 03:24:15;;;;;;;12.07;6.63;;;19.60;72.90;;;;;;2083708;28;20037;-87
2022/09/03 03:25:16;;;;;;;11.10;7.27;;;19.60;72.90;;;;;;2091609;28;20051;-89
2022/09/03 03:26:18;;;;;;;11.57;7.53;;;19.60;73.00;;;;;;2083798;28;20359;-87
2022/09/03 03:27:19;;;;;;;14.63;7.82;;;19.50;73.10;;;;;;2092252;28;20044;-87
2022/09/03 03:28:19;;;;;;;10.87;7.43;;;19.50;73.40;;;;;;2091857;28;20305;-87
2022/09/03 03:29:20;;;;;;;12.67;7.23;;;19.50;73.50;;;;;;2083038;28;20133;-87
2022/09/03 03:30:22;;;;;;;11.67;8.00;;;19.50;73.60;;;;;;2083668;28;20034;-88
2022/09/03 03:31:23;;;;;;;9.85;6.80;;;19.50;73.70;;;;;;2083827;28;20056;-87
2022/09/03 03:32:23;;;;;;;11.65;7.70;;;19.50;73.70;;;;;;2082323;28;20363;-87
2022/09/03 03:33:24;;;;;;;16.60;8.40;;;19.50;73.80;;;;;;2083580;28;20033;-88
2022/09/03 03:34:25;;;;;;;12.00;7.93;;;19.40;74.00;;;;;;2092956;28;20061;-86
2022/09/03 03:35:25;;;;;;;16.30;8.73;;;19.40;74.10;;;;;;2091847;28;20025;-87
2022/09/03 03:36:29;;;;;;;14.50;8.83;;;19.50;74.00;;;;;;2074860;28;20025;-87
2022/09/03 03:37:30;;;;;;;15.30;9.57;;;19.50;74.10;;;;;;2094311;28;20359;-88
2022/09/03 03:38:31;;;;;;;15.60;8.90;;;19.50;74.20;;;;;;2092097;28;20267;-88
2022/09/03 03:39:32;;;;;;;13.23;8.57;;;19.50;74.10;;;;;;2089618;28;20025;-88
2022/09/03 03:40:33;;;;;;;17.80;9.57;;;19.50;74.20;;;;;;2091751;28;20025;-88
2022/09/03 03:41:35;;;;;;;16.83;9.88;;;19.50;74.40;;;;;;2083656;28;20029;-86
2022/09/03 03:42:36;;;;;;;17.45;10.15;;;19.50;74.50;;;;;;2091313;28;20387;-88
2022/09/03 03:43:37;;;;;;;15.97;9.80;;;19.50;74.40;;;;;;2096383;28;20032;-85
2022/09/03 03:44:37;;;;;;;19.63;10.60;;;19.50;74.40;;;;;;2091909;28;20716;-88
2022/09/03 03:45:38;;;;;;;15.57;9.77;;;19.50;74.40;;;;;;2091722;28;20272;-87
2022/09/03 03:46:40;;;;;;;16.37;9.97;;;19.50;74.30;;;;;;2091780;28;20127;-89
2022/09/03 03:47:41;;;;;;;;;;;19.50;74.50;;;;;;2092165;28;20032;-86
2022/09/03 03:48:41;;;;;;;16.65;9.38;;;19.50;74.50;;;;;;2083525;28;19905;-87
2022/09/03 03:49:43;;;;;;;18.50;9.90;;;19.50;74.60;;;;;;2074690;28;20045;-88
2022/09/03 03:50:44;;;;;;;17.10;9.73;;;19.50;75.10;;;;;;2084060;28;20052;-88
2022/09/03 03:51:45;;;;;;;19.33;10.95;;;19.40;75.10;;;;;;2084689;28;20306;-86
2022/09/03 03:52:47;;;;;;;17.63;9.87;;;19.50;75.20;;;;;;2083454;28;20029;-87
2022/09/03 03:53:47;;;;;;;15.68;8.73;;;19.50;75.20;;;;;;2091756;28;20094;-85
2022/09/03 03:54:49;;;;;;;17.83;10.67;;;19.50;75.30;;;;;;2086796;28;20445;-87
2022/09/03 03:55:57;;;;;;;18.23;10.32;;;19.50;75.50;;;;;;2082744;28;20037;-87
2022/09/03 03:56:58;;;;;;;21.40;11.23;;;19.50;75.40;;;;;;2082071;28;20056;-87
2022/09/03 03:57:59;;;;;;;19.17;11.13;;;19.50;75.60;;;;;;2091640;28;20343;-88
2022/09/03 03:58:59;;;;;;;17.50;10.07;;;19.40;75.70;;;;;;2091495;28;20372;-88
2022/09/03 04:00:00;;;;;;;17.40;10.67;;;19.40;75.70;;;;;;2091866;28;20025;-89
2022/09/03 04:01:06;;;;;;;20.47;11.07;;;19.40;75.90;;;;;;2099894;28;20021;-86
2022/09/03 04:02:06;;;;;;;19.58;11.23;;;19.40;76.00;;;;;;2093083;28;20025;-86
2022/09/03 04:03:07;;;;;;;18.00;10.50;;;19.40;76.00;;;;;;2090554;28;20254;-87
2022/09/03 04:04:08;;;;;;;21.80;12.10;;;19.50;76.00;;;;;;2099894;28;20024;-88
2022/09/03 04:05:09;;;;;;;18.80;11.40;;;19.50;75.80;;;;;;2091603;28;20115;-88
2022/09/03 04:06:12;;;;;;;21.15;11.63;;;19.50;75.60;;;;;;2083434;28;20484;-87
2022/09/03 04:07:12;;;;;;;24.73;12.57;;;19.50;75.40;;;;;;2075869;28;20121;-87
2022/09/03 04:08:13;;;;;;;23.35;11.75;;;19.50;75.30;;;;;;2082330;28;20278;-86
2022/09/03 04:09:14;;;;;;;19.20;11.70;;;19.60;75.30;;;;;;2082583;28;20071;-86
2022/09/03 04:10:14;;;;;;;22.63;11.53;;;19.60;75.30;;;;;;2088425;28;20028;-88
2022/09/03 04:11:18;;;;;;;17.17;10.77;;;19.60;75.30;;;;;;2083394;28;20128;-87
2022/09/03 04:12:19;;;;;;;20.75;11.25;;;19.60;75.50;;;;;;2083827;28;20064;-89
2022/09/03 04:13:20;;;;;;;20.47;11.27;;;19.60;75.50;;;;;;2083243;28;20275;-88
2022/09/03 04:14:21;;;;;;;21.10;11.73;;;19.60;75.40;;;;;;2083251;28;20407;-86
2022/09/03 04:15:22;;;;;;;18.50;10.63;;;19.50;75.80;;;;;;2088473;28;20127;-86
2022/09/03 04:16:25;;;;;;;21.57;11.63;;;19.50;75.90;;;;;;2082487;28;20021;-87
2022/09/03 04:17:27;;;;;;;22.67;11.57;;;19.50;76.10;;;;;;2083792;28;20529;-88
2022/09/03 04:18:27;;;;;;;;;;;19.50;76.10;;;;;;2083747;28;20772;-87
2022/09/03 04:19:29;;;;;;;17.55;9.95;;;19.50;75.90;;;;;;2075054;28;19982;-87
2022/09/03 04:20:29;;;;;;;19.42;10.98;;;19.60;75.80;;;;;;2085800;28;20037;-87
2022/09/03 04:21:30;;;;;;;18.20;10.20;;;19.60;75.80;;;;;;2083197;28;20495;-87
2022/09/03 04:22:31;;;;;;;20.30;11.90;;;19.50;76.10;;;;;;2098949;28;20038;-88
2022/09/03 04:23:38;;;;;;;17.43;11.47;;;19.50;76.40;;;;;;2088943;28;20398;-85
2022/09/03 04:24:38;;;;;;;19.80;11.10;;;19.50;76.50;;;;;;2084139;28;20036;-87
2022/09/03 04:25:40;;;;;;;19.37;10.57;;;19.50;76.60;;;;;;2080807;28;20274;-86
2022/09/03 04:26:41;;;;;;;;;;;19.50;76.50;;;;;;2075779;28;20026;-87
2022/09/03 04:27:43;;;;;;;18.02;9.07;;;19.50;76.80;;;;;;2083202;28;19920;-87
2022/09/03 04:28:44;;;;;;;19.50;10.77;;;19.50;77.00;;;;;;2103053;28;20437;-86
2022/09/03 04:29:45;;;;;;;23.05;11.88;;;19.50;77.00;;;;;;2091009;28;20119;-89
2022/09/03 04:30:45;;;;;;;19.67;10.80;;;19.50;77.00;;;;;;2083215;28;20029;-88
2022/09/03 04:33:06;;;;;;;18.30;10.88;;;19.50;76.90;;;;;;2096573;28;20055;-90
2022/09/03 04:34:06;;;;;;;18.50;10.60;;;19.50;76.70;;;;;;2091394;28;20274;-87
2022/09/03 04:35:07;;;;;;;19.47;11.17;;;19.50;76.60;;;;;;2083133;28;20142;-87
2022/09/03 04:36:15;;;;;;;21.73;11.73;;;19.50;76.40;;;;;;2090658;28;20095;-87
2022/09/03 04:37:18;;;;;;;18.55;11.02;;;19.50;76.30;;;;;;2084058;28;20056;-89
2022/09/03 04:38:19;;;;;;;21.73;10.98;;;19.50;76.40;;;;;;2083801;28;20270;-88
2022/09/03 04:39:20;;;;;;;19.07;10.67;;;19.50;76.50;;;;;;2097365;28;20293;-88
2022/09/03 04:40:20;;;;;;;17.83;10.33;;;19.50;76.70;;;;;;2091208;28;20017;-86
2022/09/03 04:41:24;;;;;;;17.80;10.17;;;19.50;76.90;;;;;;2083215;28;20021;-88
2022/09/03 04:42:25;;;;;;;18.48;10.95;;;19.40;77.10;;;;;;2086170;28;20044;-86
2022/09/03 04:43:27;;;;;;;20.17;10.63;;;19.40;77.20;;;;;;2091437;28;20344;-86
2022/09/03 04:44:28;;;;;;;19.67;11.68;;;19.40;77.30;;;;;;2085302;28;20071;-86
2022/09/03 04:45:29;;;;;;;19.37;11.50;;;19.40;77.50;;;;;;2090602;28;20266;-86
2022/09/03 04:46:32;;;;;;;22.05;12.55;;;19.40;77.30;;;;;;2083539;28;20423;-86
2022/09/03 04:47:32;;;;;;;17.75;10.25;;;19.40;77.20;;;;;;2091322;28;20507;-85
2022/09/03 04:48:35;;;;;;;17.17;10.10;;;19.40;77.10;;;;;;2083173;28;20266;-87
2022/09/03 04:49:36;;;;;;;17.70;10.15;;;19.40;77.30;;;;;;2089091;28;20021;-87
2022/09/03 04:50:37;;;;;;;19.87;11.30;;;19.40;77.40;;;;;;2092089;28;20273;-86
2022/09/03 04:51:37;;;;;;;17.80;10.73;;;19.40;77.40;;;;;;2091396;28;20059;-88
2022/09/03 04:52:38;;;;;;;19.42;11.60;;;19.40;77.20;;;;;;2091241;28;20036;-88
2022/09/03 04:53:42;;;;;;;21.10;11.37;;;19.40;77.10;;;;;;2099566;28;20028;-86
2022/09/03 04:54:43;;;;;;;19.35;11.05;;;19.40;76.90;;;;;;2091729;28;20480;-88
2022/09/03 04:55:43;;;;;;;18.63;10.70;;;19.40;77.10;;;;;;2082385;28;20287;-85
2022/09/03 04:56:44;;;;;;;17.23;10.50;;;19.40;77.10;;;;;;2083101;28;20124;-90
2022/09/03 04:57:45;;;;;;;20.17;11.20;;;19.40;77.10;;;;;;2079418;28;20069;-87
2022/09/03 04:58:46;;;;;;;17.17;11.10;;;19.40;77.10;;;;;;2083120;28;20036;-86
2022/09/03 04:59:47;;;;;;;20.30;11.63;;;19.40;77.30;;;;;;2091379;28;20028;-86
2022/09/03 05:00:48;;;;;;;18.97;11.43;;;19.40;77.30;;;;;;2098806;28;20048;-87
2022/09/03 05:01:48;;;;;;;19.83;11.37;;;19.40;77.00;;;;;;2091207;28;20143;-87
2022/09/03 05:02:50;;;;;;;19.20;11.50;;;19.50;77.00;;;;;;2093890;28;20414;-87
2022/09/03 05:03:51;;;;;;;;;;;19.40;77.00;;;;;;2091860;28;20471;-86
2022/09/03 05:04:52;;;;;;;20.38;10.32;;;19.40;77.00;;;;;;2091088;28;19912;-86
2022/09/03 05:05:55;;;;;;;22.05;11.43;;;19.50;76.90;;;;;;2091297;28;20406;-86
2022/09/03 05:06:55;;;;;;;21.05;11.27;;;19.50;77.00;;;;;;2083192;28;20032;-89
2022/09/03 05:08:02;;;;;;;20.20;11.60;;;19.50;76.70;;;;;;2085404;28;20263;-86
2022/09/03 05:09:04;;;;;;;20.85;11.20;;;19.50;76.50;;;;;;2090498;28;20124;-85
2022/09/03 05:10:07;;;;;;;18.77;10.68;;;19.50;76.50;;;;;;2088998;28;20308;-89
2022/09/03 05:11:08;;;;;;;18.88;11.23;;;19.50;76.80;;;;;;2083412;28;20033;-89
2022/09/03 05:12:09;;;;;;;20.63;11.40;;;19.40;76.80;;;;;;2082699;28;20346;-87
2022/09/03 05:13:10;;;;;;;19.77;11.18;;;19.50;76.90;;;;;;2091542;28;20506;-89
2022/09/03 05:14:11;;;;;;;20.00;10.83;;;19.50;76.80;;;;;;2099415;28;20043;-86
2022/09/03 05:15:12;;;;;;;21.17;11.25;;;19.50;76.80;;;;;;2088876;28;20036;-88
2022/09/03 05:16:14;;;;;;;21.65;12.18;;;19.40;76.80;;;;;;2082232;28;20116;-88
2022/09/03 05:17:14;;;;;;;18.95;11.38;;;19.40;76.80;;;;;;2091410;28;20104;-88
2022/09/03 05:18:15;;;;;;;20.17;10.67;;;19.50;76.70;;;;;;2099394;28;20028;-86
2022/09/03 05:19:16;;;;;;;20.70;11.40;;;19.50;76.60;;;;;;2082801;28;20043;-86
2022/09/03 05:20:17;;;;;;;19.20;11.27;;;19.50;76.50;;;;;;2091094;28;20466;-86
2022/09/03 05:21:17;;;;;;;21.87;10.93;;;19.50;76.40;;;;;;2082887;28;20030;-88
2022/09/03 05:22:21;;;;;;;20.13;10.53;;;19.50;76.40;;;;;;2082262;28;20029;-88
2022/09/03 05:23:21;;;;;;;17.20;10.95;;;19.50;76.70;;;;;;2083461;28;20060;-86
2022/09/03 05:24:23;;;;;;;19.23;11.13;;;19.40;76.80;;;;;;2091160;28;20408;-87
2022/09/03 05:25:24;;;;;;;16.85;10.00;;;19.50;76.80;;;;;;2091164;28;20029;-86
2022/09/03 05:26:27;;;;;;;19.70;9.83;;;19.50;76.80;;;;;;2091029;28;20505;-86
2022/09/03 05:27:29;;;;;;;20.40;10.63;;;19.40;77.20;;;;;;2091278;28;20037;-88
2022/09/03 05:28:30;;;;;;;22.02;10.77;;;19.40;77.40;;;;;;2082908;28;20263;-87
2022/09/03 05:29:31;;;;;;;18.07;9.13;;;19.40;77.30;;;;;;2073666;28;20357;-87
2022/09/03 05:30:31;;;;;;;19.10;10.27;;;19.30;77.40;;;;;;2074465;28;20088;-88
2022/09/03 05:31:35;;;;;;;18.10;10.37;;;19.30;77.30;;;;;;2075409;28;20440;-88
2022/09/03 05:32:35;;;;;;;18.88;10.48;;;19.40;77.30;;;;;;2091048;28;20039;-88
2022/09/03 05:33:41;;;;;;;18.88;10.30;;;19.40;77.10;;;;;;2078289;28;20271;-87
2022/09/03 05:34:43;;;;;;;18.88;10.48;;;19.40;77.10;;;;;;2075931;28;20124;-86
2022/09/03 05:35:44;;;;;;;15.93;9.90;;;19.40;77.10;;;;;;2089228;28;20343;-86
2022/09/03 05:36:45;;;;;;;17.57;9.53;;;19.50;76.90;;;;;;2084395;28;20518;-87
2022/09/03 05:37:46;;;;;;;17.08;9.88;;;19.50;76.80;;;;;;2099166;28;20082;-87
2022/09/03 05:38:48;;;;;;;19.98;11.00;;;19.50;76.90;;;;;;2079031;28;20022;-86
2022/09/03 05:39:49;;;;;;;16.30;9.80;;;19.50;76.90;;;;;;2082810;28;20032;-88
2022/09/03 05:40:50;;;;;;;16.15;9.07;;;19.50;76.90;;;;;;2090965;28;20033;-88
2022/09/03 05:41:52;;;;;;;20.63;9.90;;;19.50;76.90;;;;;;2089336;28;20021;-88
2022/09/03 05:42:57;;;;;;;18.45;9.52;;;19.40;77.10;;;;;;2090404;28;20037;-86
2022/09/03 05:43:58;;;;;;;18.55;9.85;;;19.50;77.00;;;;;;2095323;28;20043;-89
2022/09/03 05:44:59;;;;;;;17.25;9.80;;;19.50;77.00;;;;;;2090977;28;20292;-88
2022/09/03 05:46:02;;;;;;;15.87;8.57;;;19.50;76.90;;;;;;2107112;28;20028;-88
2022/09/03 05:47:03;;;;;;;15.18;8.63;;;19.50;76.80;;;;;;2099210;28;20449;-87
2022/09/03 05:48:03;;;;;;;19.33;10.03;;;19.50;76.80;;;;;;2091042;28;20305;-86
2022/09/03 05:49:05;;;;;;;17.03;8.77;;;19.50;76.80;;;;;;2098552;28;20182;-88
2022/09/03 05:50:07;;;;;;;;;;;19.50;76.90;;;;;;2091534;28;20045;-86
2022/09/03 05:51:16;;;;;;;14.40;7.40;;;19.40;77.10;;;;;;2090818;28;19909;-89
2022/09/03 05:52:20;;;;;;;16.67;9.48;;;19.50;77.00;;;;;;2084758;28;20281;-89
2022/09/03 05:53:21;;;;;;;16.27;8.75;;;19.40;77.30;;;;;;2091657;28;20341;-87
2022/09/03 05:54:22;;;;;;;17.52;9.25;;;19.40;77.10;;;;;;2100642;28;20287;-89
2022/09/03 05:55:23;;;;;;;18.50;9.20;;;19.40;77.00;;;;;;2090684;28;20024;-87